Time;durP1;ratioP1;P1;durP2;ratioP2;P2;SDS_P1;SDS_P2;PMS_P1;PMS_P2;Temp;Humidity;BMP_temperature;BMP_pressure;BME280_temperature;BME280_humidity;BME280_pressure;Samples;Min_cycle;Max_cycle;Signal;HPM_P1;HPM_P2
2022/11/20 00:00:07;;;;;;;37.40;20.27;;;1.00;99.90;;;;;;4973314;28;20185;-68
2022/11/20 00:02:33;;;;;;;32.67;20.87;;;1.00;99.90;;;;;;4973045;28;20564;-69
2022/11/20 00:04:59;;;;;;;32.10;19.10;;;1.00;99.90;;;;;;4973393;28;20429;-69
2022/11/20 00:07:24;;;;;;;32.43;20.07;;;0.90;99.90;;;;;;4973079;28;20209;-69
2022/11/20 00:09:49;;;;;;;34.67;20.00;;;0.90;99.90;;;;;;4973218;28;20181;-71
2022/11/20 00:12:15;;;;;;;34.47;21.53;;;0.90;99.90;;;;;;4973318;28;20525;-71
2022/11/20 00:14:41;;;;;;;29.90;18.70;;;0.90;99.90;;;;;;4973089;28;20189;-72
2022/11/20 00:17:07;;;;;;;32.77;21.23;;;1.00;99.90;;;;;;4973217;28;21008;-71
2022/11/20 00:19:32;;;;;;;38.30;21.63;;;1.00;99.90;;;;;;4972947;28;20195;-71
2022/11/20 00:21:58;;;;;;;31.80;19.67;;;0.90;99.90;;;;;;4973259;28;20165;-72
2022/11/20 00:24:23;;;;;;;34.57;21.37;;;0.90;99.90;;;;;;4972994;28;20645;-71
2022/11/20 00:26:49;;;;;;;34.07;21.73;;;1.00;99.90;;;;;;4973050;28;20182;-72
2022/11/20 00:29:14;;;;;;;39.23;22.20;;;1.00;99.90;;;;;;4973036;28;20292;-71
2022/11/20 00:31:40;;;;;;;28.60;20.90;;;1.00;99.90;;;;;;4972299;28;20221;-68
2022/11/20 00:34:05;;;;;;;33.27;18.83;;;1.00;99.90;;;;;;4973032;28;20555;-69
2022/11/20 00:36:33;;;;;;;37.33;20.70;;;1.00;99.90;;;;;;4955730;28;20184;-69
2022/11/20 00:38:58;;;;;;;32.37;21.10;;;1.10;99.90;;;;;;4972985;28;20190;-70
2022/11/20 00:41:25;;;;;;;35.83;21.20;;;1.10;99.90;;;;;;4973078;28;20900;-70
2022/11/20 00:43:54;;;;;;;33.83;21.10;;;1.20;99.90;;;;;;4972967;28;20182;-70
2022/11/20 00:46:22;;;;;;;33.93;19.93;;;1.20;99.90;;;;;;4972919;28;20429;-70
2022/11/20 00:48:48;;;;;;;30.53;21.07;;;1.20;99.90;;;;;;4972885;28;20594;-70
2022/11/20 00:51:19;;;;;;;40.20;22.73;;;1.20;99.90;;;;;;4972923;28;20524;-68
2022/11/20 00:53:45;;;;;;;49.10;24.80;;;1.30;99.90;;;;;;4972916;28;20268;-69
2022/11/20 00:56:13;;;;;;;38.57;20.30;;;1.30;99.90;;;;;;4972715;28;20917;-69
2022/11/20 00:58:41;;;;;;;34.40;24.23;;;1.30;99.90;;;;;;4972790;28;20847;-69
2022/11/20 01:01:09;;;;;;;35.13;21.90;;;1.40;99.90;;;;;;4972840;28;20453;-69
2022/11/20 01:03:37;;;;;;;36.70;22.50;;;1.40;99.90;;;;;;4975460;28;20471;-69
2022/11/20 01:06:06;;;;;;;39.33;22.13;;;1.40;99.90;;;;;;4976323;28;20424;-68
2022/11/20 01:08:33;;;;;;;38.90;21.60;;;1.40;99.90;;;;;;4976015;28;20495;-69
2022/11/20 01:11:05;;;;;;;37.60;22.03;;;1.40;99.90;;;;;;4976206;28;20432;-69
2022/11/20 01:13:37;;;;;;;29.20;19.70;;;1.50;99.90;;;;;;4969890;28;20436;-69
2022/11/20 01:16:18;;;;;;;31.77;20.13;;;1.50;99.90;;;;;;4965239;28;20488;-70
2022/11/20 01:18:46;;;;;;;34.70;22.17;;;1.50;99.90;;;;;;4966897;28;20508;-70
2022/11/20 01:21:15;;;;;;;33.27;20.03;;;1.50;99.90;;;;;;4963285;28;20834;-69
2022/11/20 01:23:43;;;;;;;32.67;20.60;;;1.60;99.90;;;;;;4965300;28;21044;-69
2022/11/20 01:26:11;;;;;;;34.80;21.43;;;1.60;99.90;;;;;;4966630;28;20797;-69
2022/11/20 01:28:37;;;;;;;35.27;21.77;;;1.70;99.90;;;;;;4965649;28;20805;-69
2022/11/20 01:31:14;;;;;;;34.60;20.77;;;1.70;99.90;;;;;;4964833;28;20464;-69
2022/11/20 05:31:18;;;;;;;24.67;17.33;;;3.60;99.90;;;;;;5561484;23;20538;-72
2022/11/20 05:33:45;;;;;;;25.60;16.80;;;3.60;99.90;;;;;;4976808;28;20528;-72
2022/11/20 05:36:12;;;;;;;26.83;17.50;;;3.60;99.90;;;;;;4976884;28;20433;-72
2022/11/20 05:38:38;;;;;;;26.63;17.90;;;3.60;99.90;;;;;;4976494;28;20475;-72
2022/11/20 05:41:06;;;;;;;25.63;18.03;;;3.60;99.90;;;;;;4959379;28;20943;-73
2022/11/20 05:43:35;;;;;;;24.03;17.47;;;3.70;99.90;;;;;;4976439;28;20848;-73
2022/11/20 05:46:02;;;;;;;30.73;17.90;;;3.70;99.90;;;;;;4976508;28;20435;-73
2022/11/20 05:48:27;;;;;;;26.33;17.43;;;3.70;99.90;;;;;;4975409;28;20484;-73
2022/11/20 05:50:53;;;;;;;25.73;16.13;;;3.60;99.90;;;;;;4976223;28;20510;-73
2022/11/20 05:53:18;;;;;;;26.10;18.77;;;3.60;99.90;;;;;;4976370;28;20184;-72
2022/11/20 05:55:44;;;;;;;33.80;19.70;;;3.60;99.90;;;;;;4976317;28;20185;-72
2022/11/20 05:58:10;;;;;;;26.20;17.70;;;3.60;99.90;;;;;;4976284;28;20189;-74
2022/11/20 06:00:35;;;;;;;24.90;17.37;;;3.60;99.90;;;;;;4976263;28;20260;-74
2022/11/20 06:03:01;;;;;;;25.00;17.93;;;3.50;99.90;;;;;;4976206;28;20212;-72
2022/11/20 06:05:27;;;;;;;23.77;16.30;;;3.60;99.90;;;;;;4976069;28;20181;-71
2022/11/20 06:07:52;;;;;;;25.40;17.37;;;3.50;99.90;;;;;;4976116;28;20478;-71
2022/11/20 06:10:18;;;;;;;28.50;16.70;;;3.50;99.90;;;;;;4976107;28;20185;-71
2022/11/20 06:12:43;;;;;;;24.13;17.20;;;3.50;99.90;;;;;;4976050;28;20193;-72
2022/11/20 06:15:09;;;;;;;22.90;16.07;;;3.40;99.90;;;;;;4975948;28;20183;-72
2022/11/20 06:17:35;;;;;;;25.47;17.83;;;3.40;99.90;;;;;;4975813;28;20512;-72
2022/11/20 06:20:00;;;;;;;27.57;17.77;;;3.30;99.90;;;;;;4958571;28;20441;-71
2022/11/20 06:22:26;;;;;;;24.27;18.20;;;3.30;99.90;;;;;;4975823;28;20260;-72
2022/11/20 06:24:51;;;;;;;24.97;16.87;;;3.30;99.90;;;;;;4975896;28;20178;-71
2022/11/20 06:27:17;;;;;;;23.33;16.53;;;3.30;99.90;;;;;;4975724;28;20178;-75
2022/11/20 06:29:42;;;;;;;30.70;18.00;;;3.30;99.90;;;;;;4975767;28;20186;-74
2022/11/20 06:32:08;;;;;;;24.27;16.33;;;3.30;99.90;;;;;;4975567;28;20256;-76
2022/11/20 06:34:33;;;;;;;27.20;19.50;;;3.30;99.90;;;;;;4975667;28;20715;-73
2022/11/20 06:36:59;;;;;;;28.67;17.63;;;3.30;99.90;;;;;;4975652;28;20181;-75
2022/11/20 06:39:24;;;;;;;25.00;15.93;;;3.20;99.90;;;;;;4975523;28;20245;-72
2022/11/20 06:41:50;;;;;;;29.07;17.40;;;3.20;99.90;;;;;;4975593;28;20187;-73
2022/11/20 06:44:15;;;;;;;24.10;17.00;;;3.10;99.90;;;;;;4975403;28;20177;-73
2022/11/20 06:46:41;;;;;;;25.30;16.40;;;3.10;99.90;;;;;;4975431;28;20175;-73
2022/11/20 06:49:06;;;;;;;27.60;16.17;;;3.10;99.90;;;;;;4975403;28;20299;-72
2022/11/20 06:51:32;;;;;;;24.87;15.87;;;3.10;99.90;;;;;;4975363;28;20536;-72
2022/11/20 06:53:57;;;;;;;26.60;16.37;;;3.00;99.90;;;;;;4975345;28;20607;-71
2022/11/20 06:56:23;;;;;;;25.70;17.47;;;3.00;99.90;;;;;;4975256;28;20359;-71
2022/11/20 06:58:48;;;;;;;26.33;17.37;;;3.10;99.90;;;;;;4975278;28;20196;-71
2022/11/20 07:01:14;;;;;;;24.70;17.53;;;3.00;99.90;;;;;;4974749;28;20583;-72
2022/11/20 07:03:42;;;;;;;32.10;17.80;;;3.00;99.90;;;;;;4975098;28;20184;-70
2022/11/20 07:06:08;;;;;;;30.53;16.67;;;3.00;99.90;;;;;;4975108;28;20433;-71
2022/11/20 07:08:34;;;;;;;22.33;15.60;;;2.90;99.90;;;;;;4974923;28;21073;-72
2022/11/20 07:11:02;;;;;;;22.13;15.87;;;2.80;99.90;;;;;;4974999;28;20430;-71
2022/11/20 07:13:29;;;;;;;25.37;16.30;;;2.80;99.90;;;;;;4974811;28;20494;-71
2022/11/20 07:15:55;;;;;;;19.37;14.20;;;2.80;99.90;;;;;;4974917;28;20924;-72
2022/11/20 07:18:21;;;;;;;29.47;16.20;;;2.80;99.90;;;;;;4974855;28;20784;-71
2022/11/20 07:20:46;;;;;;;26.13;15.97;;;2.80;99.90;;;;;;4974869;28;20430;-72
2022/11/20 07:23:12;;;;;;;27.80;16.20;;;2.80;99.90;;;;;;4974855;28;20429;-71
2022/11/20 07:25:37;;;;;;;26.93;17.50;;;2.80;99.90;;;;;;4974845;28;20183;-71
2022/11/20 07:28:03;;;;;;;24.90;17.37;;;2.80;99.90;;;;;;4974790;28;20215;-71
2022/11/20 07:30:29;;;;;;;24.47;17.23;;;2.80;99.90;;;;;;4974511;28;20667;-73
2022/11/20 07:32:56;;;;;;;23.90;15.80;;;2.80;99.90;;;;;;4974831;28;20430;-71
2022/11/20 07:35:22;;;;;;;22.80;16.43;;;2.80;99.90;;;;;;4974552;28;20478;-70
2022/11/20 07:37:48;;;;;;;22.23;16.13;;;2.80;99.90;;;;;;4974488;28;20447;-73
2022/11/20 07:40:14;;;;;;;26.50;16.27;;;2.80;99.90;;;;;;4974679;28;20429;-73
2022/11/20 07:42:54;;;;;;;22.50;14.83;;;2.90;99.90;;;;;;4974549;28;20178;-71
2022/11/20 07:45:21;;;;;;;30.27;16.00;;;2.90;99.90;;;;;;4974567;28;20431;-73
2022/11/20 07:47:47;;;;;;;28.00;17.23;;;2.90;99.90;;;;;;4974405;28;20468;-71
2022/11/20 07:50:13;;;;;;;29.03;18.37;;;2.90;99.90;;;;;;4974555;28;20485;-71
2022/11/20 07:52:39;;;;;;;24.00;16.10;;;2.90;99.90;;;;;;4974700;28;20222;-71
2022/11/20 07:55:05;;;;;;;28.90;17.60;;;3.00;99.90;;;;;;4974531;28;20929;-71
2022/11/20 07:57:31;;;;;;;26.03;15.33;;;3.00;99.90;;;;;;4974294;28;20226;-73
2022/11/20 07:59:56;;;;;;;26.90;16.60;;;3.10;99.90;;;;;;4974272;28;20461;-72
2022/11/20 08:02:22;;;;;;;24.20;17.20;;;3.10;99.90;;;;;;4974069;28;20184;-72
2022/11/20 08:04:47;;;;;;;25.30;16.90;;;3.10;99.90;;;;;;4964283;28;20200;-73
2022/11/20 08:07:13;;;;;;;24.90;15.10;;;3.20;99.90;;;;;;4963499;28;20178;-73
2022/11/20 08:09:39;;;;;;;26.93;14.97;;;3.20;99.90;;;;;;4973212;28;20269;-73
2022/11/20 08:14:49;;;;;;;30.73;17.60;;;3.40;99.90;;;;;;4965613;28;20736;-75
2022/11/20 08:17:14;;;;;;;23.27;16.60;;;3.60;99.90;;;;;;4968078;28;20517;-76
2022/11/20 08:19:40;;;;;;;23.60;15.10;;;3.70;99.90;;;;;;4969213;28;20228;-74
2022/11/20 08:22:05;;;;;;;26.80;16.10;;;3.80;99.90;;;;;;4977110;28;20184;-72
2022/11/20 08:24:31;;;;;;;22.43;16.43;;;3.80;99.90;;;;;;4977128;28;20656;-73
2022/11/20 08:27:00;;;;;;;37.60;16.57;;;3.80;99.90;;;;;;4977017;28;20208;-73
2022/11/20 08:29:28;;;;;;;22.73;15.70;;;3.90;99.90;;;;;;4976850;28;20221;-72
2022/11/20 08:31:53;;;;;;;23.30;15.07;;;3.90;99.90;;;;;;4976761;28;21268;-72
2022/11/20 08:34:19;;;;;;;24.20;16.70;;;4.00;99.90;;;;;;4976796;28;20530;-72
2022/11/20 08:36:44;;;;;;;22.40;14.93;;;4.10;99.90;;;;;;4976824;28;20199;-72
2022/11/20 08:39:14;;;;;;;23.20;16.67;;;4.10;99.90;;;;;;4976755;28;20176;-72
2022/11/20 08:41:39;;;;;;;23.03;15.80;;;4.20;99.90;;;;;;4976577;28;20685;-72
2022/11/20 08:44:07;;;;;;;20.87;15.03;;;4.30;99.90;;;;;;4976799;28;20443;-72
2022/11/20 08:46:38;;;;;;;28.00;17.80;;;4.40;99.90;;;;;;4976571;28;20188;-71
2022/11/20 08:49:08;;;;;;;22.37;15.00;;;4.50;99.90;;;;;;4976642;28;20483;-72
2022/11/20 08:51:34;;;;;;;23.00;15.10;;;4.60;99.90;;;;;;4976463;28;20494;-70
2022/11/20 08:54:00;;;;;;;24.10;15.30;;;4.70;99.90;;;;;;4975950;28;20444;-72
2022/11/20 08:56:25;;;;;;;24.07;16.00;;;4.90;99.90;;;;;;4965326;28;20492;-75
2022/11/20 08:58:54;;;;;;;23.17;15.07;;;5.00;99.90;;;;;;4967381;28;20182;-74
2022/11/20 09:01:21;;;;;;;18.03;13.73;;;5.00;99.90;;;;;;4965600;28;20180;-74
2022/11/20 09:03:47;;;;;;;19.73;15.40;;;5.00;99.90;;;;;;4948482;28;20799;-76
2022/11/20 09:06:13;;;;;;;18.87;14.50;;;5.00;99.90;;;;;;4967210;28;20521;-73
2022/11/20 09:08:39;;;;;;;24.17;16.47;;;4.90;99.90;;;;;;4966084;28;20521;-73
2022/11/20 09:11:06;;;;;;;20.97;15.87;;;5.00;99.90;;;;;;4965399;28;20471;-75
2022/11/20 09:13:32;;;;;;;31.00;16.40;;;5.00;99.90;;;;;;4965042;28;20440;-73
2022/11/20 09:16:00;;;;;;;23.07;15.67;;;5.10;99.90;;;;;;4966183;28;20428;-73
2022/11/20 09:18:28;;;;;;;21.03;15.40;;;5.20;99.90;;;;;;4967011;28;20440;-72
2022/11/20 09:20:57;;;;;;;23.10;15.23;;;5.30;99.90;;;;;;4976180;28;20514;-71
2022/11/20 09:23:23;;;;;;;19.40;14.13;;;5.40;99.90;;;;;;4975658;28;20433;-71
2022/11/20 09:25:49;;;;;;;21.67;15.80;;;5.50;99.90;;;;;;4976159;28;20417;-72
2022/11/20 09:28:16;;;;;;;26.37;15.90;;;5.60;99.90;;;;;;4975792;28;20465;-72
2022/11/20 09:30:41;;;;;;;23.70;14.77;;;5.70;99.90;;;;;;4975744;28;20468;-71
2022/11/20 09:33:07;;;;;;;24.33;15.27;;;5.80;99.90;;;;;;4975870;28;20422;-72
2022/11/20 09:35:34;;;;;;;19.63;13.00;;;5.80;99.90;;;;;;4975897;28;20178;-71
2022/11/20 09:38:07;;;;;;;23.20;13.70;;;5.90;99.90;;;;;;4975786;28;20530;-72
2022/11/20 09:40:35;;;;;;;18.50;12.77;;;5.90;99.90;;;;;;4975709;28;20453;-69
2022/11/20 09:43:18;;;;;;;19.50;12.80;;;6.00;99.90;;;;;;4975639;28;20495;-70
2022/11/20 09:46:05;;;;;;;23.17;15.17;;;6.10;99.90;;;;;;4975710;28;20433;-71
2022/11/20 09:48:44;;;;;;;21.33;14.27;;;6.10;99.90;;;;;;4975472;28;20480;-70
2022/11/20 09:51:28;;;;;;;22.60;13.20;;;6.10;99.90;;;;;;4975640;28;20788;-69
2022/11/20 09:54:02;;;;;;;22.03;15.00;;;6.10;99.90;;;;;;4975224;28;20431;-70
2022/11/20 09:56:29;;;;;;;22.53;14.40;;;6.20;99.90;;;;;;4975398;28;20425;-70
2022/11/20 09:58:59;;;;;;;20.60;13.10;;;6.20;99.90;;;;;;4957897;28;20444;-72
2022/11/20 10:01:30;;;;;;;21.40;14.40;;;6.30;99.90;;;;;;4975257;28;20429;-72
2022/11/20 10:04:17;;;;;;;23.80;15.40;;;6.30;99.90;;;;;;4975168;28;20945;-73
2022/11/20 10:07:04;;;;;;;24.93;14.03;;;6.30;99.90;;;;;;4975148;28;20437;-71
2022/11/20 10:09:36;;;;;;;23.03;13.80;;;6.40;99.90;;;;;;4975087;28;20823;-71
2022/11/20 10:12:10;;;;;;;24.43;14.73;;;6.50;99.90;;;;;;4975138;28;20428;-71
2022/11/20 10:14:41;;;;;;;22.90;13.13;;;6.60;99.90;;;;;;4974972;28;20429;-71
2022/11/20 10:17:28;;;;;;;18.70;12.90;;;6.70;99.90;;;;;;4974992;28;20436;-71
2022/11/20 10:20:12;;;;;;;24.23;15.60;;;6.70;99.90;;;;;;4975090;28;20460;-70
2022/11/20 10:23:13;;;;;;;24.37;14.67;;;6.80;99.90;;;;;;4974925;28;20428;-69
2022/11/20 10:25:43;;;;;;;23.00;14.17;;;6.80;99.90;;;;;;4969754;28;20437;-70
2022/11/20 10:28:21;;;;;;;24.63;14.73;;;6.80;99.90;;;;;;4974677;28;20490;-71
2022/11/20 10:30:56;;;;;;;19.60;14.20;;;6.90;99.90;;;;;;4974653;28;20531;-71
2022/11/20 10:33:23;;;;;;;25.03;17.90;;;6.70;99.90;;;;;;4968891;28;20440;-71
2022/11/20 10:36:07;;;;;;;24.00;15.00;;;6.70;99.90;;;;;;4971655;28;20464;-72
2022/11/20 10:38:51;;;;;;;19.83;12.63;;;6.60;99.90;;;;;;4974626;28;20920;-72
2022/11/20 10:41:26;;;;;;;15.23;10.63;;;6.60;99.90;;;;;;4974429;28;20517;-72
2022/11/20 10:44:12;;;;;;;14.40;10.77;;;6.50;99.90;;;;;;4974597;28;20424;-71
2022/11/20 10:46:45;;;;;;;16.93;11.33;;;6.50;99.90;;;;;;4974325;28;20851;-70
2022/11/20 10:49:17;;;;;;;19.33;12.07;;;6.40;99.90;;;;;;4974470;28;20477;-71
2022/11/20 10:51:59;;;;;;;16.57;10.63;;;6.40;99.90;;;;;;4974451;28;20424;-70
2022/11/20 10:54:36;;;;;;;14.37;9.93;;;6.40;99.90;;;;;;4974456;28;20851;-72
2022/11/20 10:57:39;;;;;;;24.90;12.05;;;6.40;99.90;;;;;;4973505;28;20430;-69
2022/11/20 11:00:09;;;;;;;15.30;10.67;;;6.50;99.90;;;;;;4954958;29;20174;-69
2022/11/20 11:02:51;;;;;;;13.70;8.67;;;6.60;99.90;;;;;;4957434;28;20820;-73
2022/11/20 11:05:38;;;;;;;15.63;10.00;;;6.60;99.90;;;;;;4963112;28;20452;-76
2022/11/20 11:08:16;;;;;;;13.60;9.30;;;6.60;99.90;;;;;;4964033;28;20470;-73
2022/11/20 11:10:41;;;;;;;14.53;8.87;;;6.60;99.90;;;;;;4963965;28;20785;-74
2022/11/20 11:13:18;;;;;;;14.80;10.23;;;6.50;99.90;;;;;;4963380;28;20425;-74
2022/11/20 11:15:44;;;;;;;14.00;9.90;;;6.50;99.90;;;;;;4963924;28;20577;-74
2022/11/20 11:18:11;;;;;;;13.47;9.10;;;6.50;99.90;;;;;;4963048;28;20437;-73
2022/11/20 11:20:37;;;;;;;15.87;10.47;;;6.50;99.90;;;;;;4962832;28;20182;-75
2022/11/20 11:23:04;;;;;;;16.07;10.87;;;6.50;99.90;;;;;;4963920;28;20428;-72
2022/11/20 11:25:37;;;;;;;11.80;8.70;;;6.50;99.90;;;;;;4964524;28;20508;-72
2022/11/20 11:28:05;;;;;;;14.20;9.80;;;6.50;99.90;;;;;;4963467;28;20463;-73
2022/11/20 11:30:43;;;;;;;15.23;10.73;;;6.50;99.90;;;;;;4962390;28;20480;-73
2022/11/20 11:33:20;;;;;;;17.27;11.60;;;6.40;99.90;;;;;;4964299;28;20445;-75
2022/11/20 11:35:48;;;;;;;24.17;15.60;;;6.40;99.90;;;;;;4963851;28;20440;-77
2022/11/20 11:38:17;;;;;;;17.87;13.40;;;6.40;99.90;;;;;;4962663;28;20445;-68
2022/11/20 11:40:43;;;;;;;18.73;12.87;;;6.30;99.90;;;;;;4963691;28;20433;-68
2022/11/20 11:46:33;;;;;;;14.33;10.17;;;6.20;99.90;;;;;;4964689;28;20416;-68
2022/11/20 11:49:18;;;;;;;15.53;10.77;;;6.30;99.90;;;;;;4962859;28;21047;-69
2022/11/20 11:52:05;;;;;;;17.73;12.30;;;6.30;99.90;;;;;;4963767;28;20841;-68
2022/11/20 11:54:42;;;;;;;14.30;10.70;;;6.30;99.90;;;;;;4964148;28;20448;-69
2022/11/20 11:57:37;;;;;;;15.93;10.43;;;6.30;99.90;;;;;;4964214;28;20972;-69
2022/11/20 12:00:11;;;;;;;13.00;9.07;;;6.30;99.90;;;;;;4960933;28;20468;-69
2022/11/20 12:02:49;;;;;;;14.83;11.00;;;6.40;99.90;;;;;;4962613;28;20425;-69
2022/11/20 12:05:44;;;;;;;15.90;10.30;;;6.30;99.90;;;;;;4963733;28;20843;-69
2022/11/20 12:08:38;;;;;;;16.90;11.40;;;6.30;99.90;;;;;;4973139;28;20479;-69
2022/11/20 12:11:19;;;;;;;14.03;9.70;;;6.30;99.90;;;;;;4973315;28;20414;-71
2022/11/20 12:14:14;;;;;;;12.83;9.83;;;6.50;99.90;;;;;;4973312;28;20425;-70
2022/11/20 12:16:40;;;;;;;14.53;10.03;;;6.50;99.90;;;;;;4972301;28;20843;-69
2022/11/20 12:19:12;;;;;;;14.23;8.80;;;6.60;99.90;;;;;;4972803;28;20511;-69
2022/11/20 12:21:59;;;;;;;15.10;8.57;;;6.70;99.90;;;;;;4972575;28;20445;-69
2022/11/20 12:24:53;;;;;;;13.30;9.13;;;6.80;99.90;;;;;;4973068;28;20951;-70
2022/11/20 12:27:56;;;;;;;13.77;8.47;;;6.50;99.90;;;;;;4972975;28;20932;-69
2022/11/20 12:30:24;;;;;;;16.57;10.37;;;6.50;99.90;;;;;;4972528;28;20834;-69
2022/11/20 12:33:08;;;;;;;11.83;8.90;;;6.50;99.90;;;;;;4972650;28;20433;-69
2022/11/20 12:35:40;;;;;;;14.47;9.20;;;6.50;99.90;;;;;;4973580;28;20428;-68
2022/11/20 12:38:24;;;;;;;16.03;9.87;;;6.60;99.90;;;;;;4973804;28;20413;-69
2022/11/20 12:41:11;;;;;;;14.27;10.13;;;6.60;99.90;;;;;;4973952;28;20472;-68
2022/11/20 12:46:51;;;;;;;16.87;10.70;;;6.90;99.90;;;;;;4973966;28;20789;-68
2022/11/20 12:49:19;;;;;;;13.50;9.90;;;6.90;99.90;;;;;;4973855;28;20480;-69
2022/11/20 12:52:20;;;;;;;14.67;9.70;;;6.90;99.90;;;;;;4973752;28;20425;-69
2022/11/20 12:55:02;;;;;;;17.13;11.07;;;6.80;99.90;;;;;;4973816;28;20436;-69
2022/11/20 12:57:40;;;;;;;12.40;9.50;;;6.80;99.90;;;;;;4973774;28;20448;-68
2022/11/20 13:00:26;;;;;;;16.23;9.77;;;6.70;99.90;;;;;;4976191;28;20950;-68
2022/11/20 13:03:16;;;;;;;13.70;10.47;;;6.60;99.90;;;;;;4977458;28;20421;-69
2022/11/20 13:06:00;;;;;;;14.70;9.70;;;6.60;99.90;;;;;;4977425;28;20433;-69
2022/11/20 13:08:34;;;;;;;13.33;9.20;;;6.70;99.90;;;;;;4977214;28;20477;-69
2022/11/20 13:11:20;;;;;;;15.60;10.33;;;6.70;99.90;;;;;;4977189;28;20904;-69
2022/11/20 13:14:12;;;;;;;13.43;9.53;;;6.70;99.90;;;;;;4977117;28;20432;-69
2022/11/20 13:16:49;;;;;;;16.00;10.47;;;6.60;99.90;;;;;;4976995;28;20429;-69
2022/11/20 13:19:17;;;;;;;17.77;11.20;;;6.60;99.90;;;;;;4977068;28;20499;-69
2022/11/20 13:21:46;;;;;;;14.67;10.17;;;6.60;99.90;;;;;;4977019;28;20429;-69
2022/11/20 13:24:30;;;;;;;18.07;11.17;;;6.70;99.90;;;;;;4976979;28;20471;-69
2022/11/20 13:27:17;;;;;;;17.77;10.40;;;6.70;99.90;;;;;;4976982;28;20442;-69
2022/11/20 13:29:45;;;;;;;13.60;9.77;;;6.60;99.90;;;;;;4976966;28;20829;-69
2022/11/20 13:32:19;;;;;;;13.77;9.57;;;6.50;99.90;;;;;;4976568;28;21083;-69
2022/11/20 13:34:53;;;;;;;19.43;12.00;;;6.50;99.90;;;;;;4976792;28;20432;-69
2022/11/20 13:37:27;;;;;;;17.00;11.07;;;6.50;99.90;;;;;;4976683;28;20425;-69
2022/11/20 13:39:52;;;;;;;19.00;11.17;;;6.50;99.90;;;;;;4976747;28;20537;-69
2022/11/20 13:42:22;;;;;;;14.97;9.83;;;6.60;99.90;;;;;;4959337;28;20469;-69
2022/11/20 13:44:53;;;;;;;21.23;13.13;;;6.60;99.90;;;;;;4976671;28;20185;-69
2022/11/20 13:47:27;;;;;;;20.00;10.50;;;6.50;99.90;;;;;;4976561;28;20793;-69
2022/11/20 13:49:54;;;;;;;17.20;11.90;;;6.50;99.90;;;;;;4976510;28;20507;-69
2022/11/20 13:52:22;;;;;;;17.73;10.53;;;6.30;99.90;;;;;;4976244;28;20465;-69
2022/11/20 13:54:54;;;;;;;16.93;10.73;;;6.20;99.90;;;;;;4976471;28;20500;-69
2022/11/20 13:58:04;;;;;;;15.93;10.53;;;6.20;99.90;;;;;;4976277;28;20443;-69
2022/11/20 14:00:29;;;;;;;18.87;11.20;;;6.20;99.90;;;;;;4976330;28;20757;-69
2022/11/20 14:03:34;;;;;;;18.33;12.27;;;6.30;99.90;;;;;;4976344;28;20433;-69
2022/11/20 14:06:03;;;;;;;20.87;12.90;;;6.20;99.90;;;;;;4879076;29;20177;-69
2022/11/20 14:08:43;;;;;;;21.87;13.77;;;6.30;99.90;;;;;;4878939;29;20639;-69
2022/11/20 14:11:21;;;;;;;14.47;10.67;;;6.40;99.90;;;;;;4934767;28;20966;-69
2022/11/20 14:14:15;;;;;;;12.90;11.03;;;6.40;99.90;;;;;;4976189;28;20421;-69
2022/11/20 14:16:42;;;;;;;21.27;14.57;;;6.40;99.90;;;;;;4958595;28;20994;-69
2022/11/20 14:19:20;;;;;;;20.60;15.73;;;6.40;99.90;;;;;;4975919;28;20464;-69
2022/11/20 14:21:53;;;;;;;23.57;12.70;;;6.40;99.90;;;;;;4975356;28;20461;-69
2022/11/20 14:24:21;;;;;;;19.37;12.70;;;6.40;99.90;;;;;;4975976;28;20429;-69
2022/11/20 14:26:48;;;;;;;16.57;11.20;;;6.40;99.90;;;;;;4975894;28;20521;-69
2022/11/20 14:29:17;;;;;;;18.83;12.43;;;6.50;99.90;;;;;;4975733;28;20523;-69
2022/11/20 14:31:44;;;;;;;20.70;12.33;;;6.50;99.90;;;;;;4975667;28;20460;-69
2022/11/20 14:34:19;;;;;;;19.73;11.33;;;6.50;99.90;;;;;;4975621;28;20433;-69
2022/11/20 14:36:45;;;;;;;17.80;12.70;;;6.40;99.90;;;;;;4975686;28;20932;-69
2022/11/20 14:39:19;;;;;;;18.90;12.60;;;6.50;99.90;;;;;;4975624;28;20441;-69
2022/11/20 14:41:51;;;;;;;18.10;11.40;;;6.50;99.90;;;;;;4975647;28;20181;-69
2022/11/20 14:44:17;;;;;;;20.20;12.37;;;6.50;99.90;;;;;;4975520;28;20433;-69
2022/11/20 14:46:43;;;;;;;18.90;12.87;;;6.50;99.90;;;;;;4975437;28;20983;-69
2022/11/20 14:49:10;;;;;;;21.07;13.10;;;6.40;99.90;;;;;;4975325;28;20867;-69
2022/11/20 14:51:41;;;;;;;17.87;11.90;;;6.40;99.90;;;;;;4975249;28;20421;-69
2022/11/20 14:54:23;;;;;;;18.40;11.70;;;6.40;99.90;;;;;;4975306;28;20432;-69
2022/11/20 14:57:01;;;;;;;17.53;13.10;;;6.40;99.90;;;;;;4975458;28;20483;-69
2022/11/20 14:59:29;;;;;;;16.80;12.40;;;6.50;99.90;;;;;;4975225;28;20447;-69
2022/11/20 15:02:01;;;;;;;17.67;12.17;;;6.40;99.90;;;;;;4975138;28;20869;-69
2022/11/20 15:04:26;;;;;;;19.93;11.43;;;6.40;99.90;;;;;;4974745;28;20421;-69
2022/11/20 15:06:55;;;;;;;19.80;13.27;;;6.40;99.90;;;;;;4975112;28;20429;-69
2022/11/20 15:09:20;;;;;;;17.20;12.17;;;6.40;99.90;;;;;;4975011;28;20213;-69
2022/11/20 15:11:58;;;;;;;20.83;13.40;;;6.30;99.90;;;;;;4975127;28;20433;-69
2022/11/20 15:14:26;;;;;;;19.40;13.00;;;6.40;99.90;;;;;;4974970;28;20177;-69
2022/11/20 15:16:52;;;;;;;22.10;13.87;;;6.40;99.90;;;;;;4974940;28;20432;-69
2022/11/20 15:19:20;;;;;;;18.33;12.60;;;6.40;99.90;;;;;;4974865;28;20432;-69
2022/11/20 15:21:46;;;;;;;20.37;12.07;;;6.30;99.90;;;;;;4974606;28;20429;-69
2022/11/20 15:24:12;;;;;;;20.63;12.87;;;6.20;99.90;;;;;;4974894;28;20513;-69
2022/11/20 15:26:39;;;;;;;20.87;13.67;;;6.30;99.90;;;;;;4957425;28;20185;-69
2022/11/20 15:29:10;;;;;;;24.87;14.47;;;6.20;99.90;;;;;;4974428;28;20224;-69
2022/11/20 15:31:37;;;;;;;18.63;12.83;;;6.20;99.90;;;;;;4974431;28;20473;-69
2022/11/20 15:34:07;;;;;;;21.67;13.10;;;6.20;99.90;;;;;;4974652;28;20902;-69
2022/11/20 15:36:32;;;;;;;24.43;14.83;;;6.20;99.90;;;;;;4974646;28;20832;-69
2022/11/20 15:38:58;;;;;;;21.50;14.37;;;6.20;99.90;;;;;;4974507;28;20472;-69
2022/11/20 15:41:23;;;;;;;23.23;15.00;;;6.20;99.90;;;;;;4974453;28;20303;-69
2022/11/20 15:43:49;;;;;;;20.17;13.40;;;6.10;99.90;;;;;;4974555;28;20180;-69
2022/11/20 15:46:22;;;;;;;18.80;13.20;;;6.00;99.90;;;;;;4974513;28;20178;-69
2022/11/20 15:48:53;;;;;;;23.97;13.80;;;6.00;99.90;;;;;;4974501;28;20473;-69
2022/11/20 15:51:28;;;;;;;22.87;12.97;;;6.00;99.90;;;;;;4974393;28;20431;-69
2022/11/20 15:53:55;;;;;;;23.53;15.30;;;6.00;99.90;;;;;;4974398;28;20432;-69
2022/11/20 15:56:21;;;;;;;24.40;14.67;;;6.00;99.90;;;;;;4974443;28;20795;-69
2022/11/20 15:58:46;;;;;;;26.27;15.13;;;6.00;99.90;;;;;;4974460;28;20425;-69
2022/11/20 16:01:14;;;;;;;23.90;14.57;;;6.00;99.90;;;;;;4974298;28;20628;-69
2022/11/20 16:03:40;;;;;;;24.40;15.90;;;6.00;99.90;;;;;;4974367;28;20198;-69
2022/11/20 16:06:06;;;;;;;27.20;16.67;;;6.00;99.90;;;;;;4974327;28;20504;-69
2022/11/20 16:08:31;;;;;;;23.83;14.10;;;5.90;99.90;;;;;;4974145;28;20460;-69
2022/11/20 16:10:57;;;;;;;25.33;15.70;;;5.80;99.90;;;;;;4974217;28;20192;-69
2022/11/20 16:16:29;;;;;;;24.70;14.23;;;6.00;99.90;;;;;;4974521;28;20232;-69
2022/11/20 16:18:55;;;;;;;28.10;18.50;;;5.90;99.90;;;;;;4959328;28;20465;-69
2022/11/20 16:21:26;;;;;;;27.83;17.10;;;5.80;99.90;;;;;;4974028;28;20509;-69
2022/11/20 16:23:52;;;;;;;24.20;16.73;;;5.90;99.90;;;;;;4974153;28;20752;-69
2022/11/20 16:26:18;;;;;;;27.27;17.07;;;5.90;99.90;;;;;;4974033;28;20461;-69
2022/11/20 16:28:44;;;;;;;32.30;18.30;;;6.00;99.90;;;;;;4974021;28;20672;-69
2022/11/20 16:31:12;;;;;;;25.77;15.73;;;5.90;99.90;;;;;;4973775;28;20476;-69
2022/11/20 16:33:37;;;;;;;23.50;16.10;;;5.90;99.90;;;;;;4975582;28;20520;-69
2022/11/20 16:36:11;;;;;;;25.20;16.13;;;6.00;99.90;;;;;;4977789;28;20519;-69
2022/11/20 16:38:36;;;;;;;26.77;16.53;;;6.00;99.90;;;;;;4977754;28;20263;-69
2022/11/20 16:41:02;;;;;;;34.30;19.20;;;6.00;99.90;;;;;;4977748;28;20479;-69
2022/11/20 16:43:28;;;;;;;28.50;18.00;;;6.00;99.90;;;;;;4977708;28;20186;-69
2022/11/20 16:45:53;;;;;;;29.47;17.53;;;6.00;99.90;;;;;;4977674;28;20521;-69
2022/11/20 16:48:19;;;;;;;33.53;16.33;;;6.00;99.90;;;;;;4977578;28;20324;-69
2022/11/20 16:50:49;;;;;;;29.80;17.33;;;6.00;99.90;;;;;;4977588;28;20185;-69
2022/11/20 16:53:16;;;;;;;28.00;17.47;;;6.00;99.90;;;;;;4977833;28;20204;-69
2022/11/20 16:55:42;;;;;;;32.10;17.57;;;6.00;99.90;;;;;;4977629;28;20495;-69
2022/11/20 16:58:08;;;;;;;31.57;18.37;;;6.00;99.90;;;;;;4977486;28;20881;-69
2022/11/20 17:00:36;;;;;;;31.00;18.47;;;5.90;99.90;;;;;;4977327;28;20182;-69
2022/11/20 17:03:02;;;;;;;28.90;17.80;;;5.90;99.90;;;;;;4977419;28;20543;-69
2022/11/20 17:05:32;;;;;;;33.60;19.90;;;5.90;99.90;;;;;;4977374;28;20777;-69